sensor_id;sensor_type;location;lat;lon;timestamp;P1;durP1;ratioP1;P2;durP2;ratioP2
60919;SDS011;59039;52.108;19.942;2023-10-31T00:01:03;52.10;;;23.20;;
60919;SDS011;59039;52.108;19.942;2023-10-31T00:03:28;54.30;;;22.10;;
60919;SDS011;59039;52.108;19.942;2023-10-31T00:05:54;49.80;;;21.40;;
60919;SDS011;59039;52.108;19.942;2023-10-31T00:08:19;46.90;;;22.00;;
60919;SDS011;59039;52.108;19.942;2023-10-31T00:10:44;43.50;;;22.00;;
60919;SDS011;59039;52.108;19.942;2023-10-31T00:13:09;45.40;;;20.80;;
60919;SDS011;59039;52.108;19.942;2023-10-31T00:15:35;47.90;;;21.30;;
60919;SDS011;59039;52.108;19.942;2023-10-31T00:18:00;48.20;;;20.80;;
60919;SDS011;59039;52.108;19.942;2023-10-31T00:20:25;40.10;;;19.80;;
60919;SDS011;59039;52.108;19.942;2023-10-31T00:22:50;43.50;;;20.90;;
60919;SDS011;59039;52.108;19.942;2023-10-31T00:25:16;45.10;;;20.60;;
60919;SDS011;59039;52.108;19.942;2023-10-31T00:27:41;38.80;;;19.10;;
60919;SDS011;59039;52.108;19.942;2023-10-31T00:30:06;45.00;;;20.20;;
60919;SDS011;59039;52.108;19.942;2023-10-31T00:32:32;45.30;;;21.10;;
60919;SDS011;59039;52.108;19.942;2023-10-31T00:34:57;41.10;;;19.00;;
60919;SDS011;59039;52.108;19.942;2023-10-31T00:37:22;45.90;;;20.00;;
60919;SDS011;59039;52.108;19.942;2023-10-31T00:39:48;35.60;;;19.30;;
60919;SDS011;59039;52.108;19.942;2023-10-31T00:42:13;39.70;;;18.80;;
60919;SDS011;59039;52.108;19.942;2023-10-31T00:44:38;43.60;;;18.90;;
60919;SDS011;59039;52.108;19.942;2023-10-31T00:47:03;42.70;;;19.40;;
60919;SDS011;59039;52.108;19.942;2023-10-31T00:49:29;42.50;;;21.00;;
60919;SDS011;59039;52.108;19.942;2023-10-31T00:51:54;41.30;;;19.70;;
60919;SDS011;59039;52.108;19.942;2023-10-31T00:54:19;35.60;;;18.80;;
60919;SDS011;59039;52.108;19.942;2023-10-31T00:56:44;42.80;;;20.10;;
60919;SDS011;59039;52.108;19.942;2023-10-31T00:59:09;37.80;;;18.20;;
60919;SDS011;59039;52.108;19.942;2023-10-31T01:01:35;43.10;;;18.70;;
60919;SDS011;59039;52.108;19.942;2023-10-31T01:04:00;34.80;;;18.30;;
60919;SDS011;59039;52.108;19.942;2023-10-31T01:06:25;46.60;;;18.80;;
60919;SDS011;59039;52.108;19.942;2023-10-31T01:08:50;34.70;;;17.60;;
60919;SDS011;59039;52.108;19.942;2023-10-31T01:11:15;36.00;;;16.90;;
60919;SDS011;59039;52.108;19.942;2023-10-31T01:13:41;39.10;;;18.70;;
60919;SDS011;59039;52.108;19.942;2023-10-31T01:16:06;41.50;;;18.50;;
60919;SDS011;59039;52.108;19.942;2023-10-31T01:18:31;41.90;;;18.00;;
60919;SDS011;59039;52.108;19.942;2023-10-31T01:20:57;31.00;;;16.10;;
60919;SDS011;59039;52.108;19.942;2023-10-31T01:23:22;41.10;;;17.50;;
60919;SDS011;59039;52.108;19.942;2023-10-31T01:25:47;33.30;;;17.90;;
60919;SDS011;59039;52.108;19.942;2023-10-31T01:28:12;29.30;;;16.10;;
60919;SDS011;59039;52.108;19.942;2023-10-31T01:30:37;31.50;;;16.30;;
60919;SDS011;59039;52.108;19.942;2023-10-31T01:33:03;35.90;;;16.60;;
60919;SDS011;59039;52.108;19.942;2023-10-31T01:35:28;31.20;;;15.80;;
60919;SDS011;59039;52.108;19.942;2023-10-31T01:37:53;39.80;;;17.60;;
60919;SDS011;59039;52.108;19.942;2023-10-31T01:40:18;40.40;;;15.70;;
60919;SDS011;59039;52.108;19.942;2023-10-31T01:42:43;33.40;;;17.00;;
60919;SDS011;59039;52.108;19.942;2023-10-31T01:45:09;31.70;;;17.00;;
60919;SDS011;59039;52.108;19.942;2023-10-31T01:47:34;28.50;;;15.70;;
60919;SDS011;59039;52.108;19.942;2023-10-31T01:49:59;28.10;;;15.80;;
60919;SDS011;59039;52.108;19.942;2023-10-31T01:52:25;36.50;;;17.30;;
60919;SDS011;59039;52.108;19.942;2023-10-31T01:54:51;29.90;;;15.10;;
60919;SDS011;59039;52.108;19.942;2023-10-31T01:57:18;35.00;;;16.10;;
60919;SDS011;59039;52.108;19.942;2023-10-31T01:59:45;36.60;;;15.50;;
60919;SDS011;59039;52.108;19.942;2023-10-31T02:02:11;33.50;;;15.80;;
60919;SDS011;59039;52.108;19.942;2023-10-31T02:04:36;32.70;;;16.20;;
60919;SDS011;59039;52.108;19.942;2023-10-31T02:07:01;29.10;;;15.50;;
60919;SDS011;59039;52.108;19.942;2023-10-31T02:09:26;32.90;;;15.70;;
60919;SDS011;59039;52.108;19.942;2023-10-31T02:11:52;32.40;;;15.40;;
60919;SDS011;59039;52.108;19.942;2023-10-31T02:14:17;33.20;;;14.40;;
60919;SDS011;59039;52.108;19.942;2023-10-31T02:16:43;28.40;;;15.00;;
60919;SDS011;59039;52.108;19.942;2023-10-31T02:19:08;33.80;;;14.50;;
60919;SDS011;59039;52.108;19.942;2023-10-31T02:21:38;29.50;;;13.80;;
60919;SDS011;59039;52.108;19.942;2023-10-31T02:24:04;33.60;;;15.30;;
60919;SDS011;59039;52.108;19.942;2023-10-31T02:26:30;32.10;;;15.70;;
60919;SDS011;59039;52.108;19.942;2023-10-31T02:28:56;32.90;;;14.10;;
60919;SDS011;59039;52.108;19.942;2023-10-31T02:31:22;30.00;;;14.40;;
60919;SDS011;59039;52.108;19.942;2023-10-31T02:33:47;26.80;;;13.90;;
60919;SDS011;59039;52.108;19.942;2023-10-31T02:36:12;33.50;;;14.00;;
60919;SDS011;59039;52.108;19.942;2023-10-31T02:38:37;28.70;;;14.40;;
60919;SDS011;59039;52.108;19.942;2023-10-31T02:41:03;26.60;;;14.50;;
60919;SDS011;59039;52.108;19.942;2023-10-31T02:43:28;25.10;;;13.20;;
60919;SDS011;59039;52.108;19.942;2023-10-31T02:45:53;31.70;;;13.40;;
60919;SDS011;59039;52.108;19.942;2023-10-31T02:48:18;23.80;;;13.70;;
60919;SDS011;59039;52.108;19.942;2023-10-31T02:50:43;30.50;;;13.20;;
60919;SDS011;59039;52.108;19.942;2023-10-31T02:53:09;25.10;;;12.70;;
60919;SDS011;59039;52.108;19.942;2023-10-31T02:55:34;28.10;;;12.60;;
60919;SDS011;59039;52.108;19.942;2023-10-31T02:57:59;25.90;;;12.40;;
60919;SDS011;59039;52.108;19.942;2023-10-31T03:00:24;22.50;;;12.40;;
60919;SDS011;59039;52.108;19.942;2023-10-31T03:02:49;26.00;;;12.50;;
60919;SDS011;59039;52.108;19.942;2023-10-31T03:05:15;23.70;;;12.30;;
60919;SDS011;59039;52.108;19.942;2023-10-31T03:07:40;27.90;;;12.40;;
60919;SDS011;59039;52.108;19.942;2023-10-31T03:10:05;22.00;;;12.30;;
60919;SDS011;59039;52.108;19.942;2023-10-31T03:12:31;21.10;;;12.40;;
60919;SDS011;59039;52.108;19.942;2023-10-31T03:14:56;25.80;;;12.00;;
60919;SDS011;59039;52.108;19.942;2023-10-31T03:17:21;26.90;;;12.60;;
60919;SDS011;59039;52.108;19.942;2023-10-31T03:19:47;28.00;;;11.90;;
60919;SDS011;59039;52.108;19.942;2023-10-31T03:22:12;18.90;;;11.30;;
60919;SDS011;59039;52.108;19.942;2023-10-31T03:24:37;20.10;;;11.40;;
60919;SDS011;59039;52.108;19.942;2023-10-31T03:27:02;25.10;;;11.40;;
60919;SDS011;59039;52.108;19.942;2023-10-31T03:29:27;21.50;;;11.00;;
60919;SDS011;59039;52.108;19.942;2023-10-31T03:31:53;23.70;;;11.40;;
60919;SDS011;59039;52.108;19.942;2023-10-31T03:34:18;20.30;;;10.50;;
60919;SDS011;59039;52.108;19.942;2023-10-31T03:36:43;23.20;;;12.10;;
60919;SDS011;59039;52.108;19.942;2023-10-31T03:39:08;21.30;;;10.40;;
60919;SDS011;59039;52.108;19.942;2023-10-31T03:41:34;24.30;;;10.20;;
60919;SDS011;59039;52.108;19.942;2023-10-31T03:43:59;26.10;;;11.70;;
60919;SDS011;59039;52.108;19.942;2023-10-31T03:46:24;19.00;;;9.90;;
60919;SDS011;59039;52.108;19.942;2023-10-31T03:48:49;24.00;;;11.10;;
60919;SDS011;59039;52.108;19.942;2023-10-31T03:51:14;17.90;;;9.50;;
60919;SDS011;59039;52.108;19.942;2023-10-31T03:53:40;22.50;;;10.40;;
60919;SDS011;59039;52.108;19.942;2023-10-31T03:56:05;20.00;;;11.00;;
60919;SDS011;59039;52.108;19.942;2023-10-31T03:58:30;22.30;;;10.40;;
60919;SDS011;59039;52.108;19.942;2023-10-31T04:00:55;20.10;;;11.10;;
60919;SDS011;59039;52.108;19.942;2023-10-31T04:03:20;20.00;;;10.60;;
60919;SDS011;59039;52.108;19.942;2023-10-31T04:05:46;25.80;;;11.00;;
60919;SDS011;59039;52.108;19.942;2023-10-31T04:08:11;25.70;;;11.70;;
60919;SDS011;59039;52.108;19.942;2023-10-31T04:10:36;27.00;;;11.70;;
60919;SDS011;59039;52.108;19.942;2023-10-31T04:13:01;22.20;;;11.20;;
60919;SDS011;59039;52.108;19.942;2023-10-31T04:15:27;23.20;;;11.60;;
60919;SDS011;59039;52.108;19.942;2023-10-31T04:17:52;21.90;;;10.40;;
60919;SDS011;59039;52.108;19.942;2023-10-31T04:20:17;26.50;;;11.60;;
60919;SDS011;59039;52.108;19.942;2023-10-31T04:22:42;21.20;;;10.40;;
60919;SDS011;59039;52.108;19.942;2023-10-31T04:25:07;21.00;;;11.10;;
60919;SDS011;59039;52.108;19.942;2023-10-31T04:27:33;21.20;;;10.80;;
60919;SDS011;59039;52.108;19.942;2023-10-31T04:29:58;22.60;;;10.40;;
60919;SDS011;59039;52.108;19.942;2023-10-31T04:32:23;23.80;;;11.30;;
60919;SDS011;59039;52.108;19.942;2023-10-31T04:34:49;26.10;;;11.30;;
60919;SDS011;59039;52.108;19.942;2023-10-31T04:37:14;26.30;;;11.10;;
60919;SDS011;59039;52.108;19.942;2023-10-31T04:39:39;19.20;;;10.40;;
60919;SDS011;59039;52.108;19.942;2023-10-31T04:42:04;21.40;;;11.00;;
60919;SDS011;59039;52.108;19.942;2023-10-31T04:44:29;21.40;;;10.00;;
60919;SDS011;59039;52.108;19.942;2023-10-31T04:46:55;28.90;;;11.00;;
60919;SDS011;59039;52.108;19.942;2023-10-31T04:49:20;19.10;;;9.30;;
60919;SDS011;59039;52.108;19.942;2023-10-31T04:51:45;22.00;;;10.00;;
60919;SDS011;59039;52.108;19.942;2023-10-31T04:54:10;19.90;;;8.90;;
60919;SDS011;59039;52.108;19.942;2023-10-31T04:56:36;15.00;;;8.70;;
60919;SDS011;59039;52.108;19.942;2023-10-31T04:59:01;19.60;;;9.10;;
60919;SDS011;59039;52.108;19.942;2023-10-31T05:01:26;14.50;;;8.90;;
60919;SDS011;59039;52.108;19.942;2023-10-31T05:03:52;13.60;;;8.50;;
60919;SDS011;59039;52.108;19.942;2023-10-31T05:06:20;16.60;;;7.90;;
60919;SDS011;59039;52.108;19.942;2023-10-31T05:08:47;24.90;;;9.30;;
60919;SDS011;59039;52.108;19.942;2023-10-31T05:11:12;15.40;;;8.80;;
60919;SDS011;59039;52.108;19.942;2023-10-31T05:13:38;16.10;;;8.70;;
60919;SDS011;59039;52.108;19.942;2023-10-31T05:16:04;15.70;;;7.80;;
60919;SDS011;59039;52.108;19.942;2023-10-31T05:18:29;17.70;;;8.30;;
60919;SDS011;59039;52.108;19.942;2023-10-31T05:20:54;13.70;;;8.10;;
60919;SDS011;59039;52.108;19.942;2023-10-31T05:23:19;18.20;;;7.80;;
60919;SDS011;59039;52.108;19.942;2023-10-31T05:25:45;12.80;;;7.00;;
60919;SDS011;59039;52.108;19.942;2023-10-31T05:28:10;17.00;;;8.40;;
60919;SDS011;59039;52.108;19.942;2023-10-31T05:30:35;19.70;;;7.60;;
60919;SDS011;59039;52.108;19.942;2023-10-31T05:33:00;23.10;;;9.20;;
60919;SDS011;59039;52.108;19.942;2023-10-31T05:35:25;13.90;;;7.70;;
60919;SDS011;59039;52.108;19.942;2023-10-31T05:37:51;17.80;;;8.30;;
60919;SDS011;59039;52.108;19.942;2023-10-31T05:40:16;15.00;;;7.20;;
60919;SDS011;59039;52.108;19.942;2023-10-31T05:42:41;31.60;;;8.80;;
60919;SDS011;59039;52.108;19.942;2023-10-31T05:45:07;24.60;;;8.40;;
60919;SDS011;59039;52.108;19.942;2023-10-31T05:47:32;16.60;;;8.10;;
60919;SDS011;59039;52.108;19.942;2023-10-31T05:49:57;14.20;;;8.00;;
60919;SDS011;59039;52.108;19.942;2023-10-31T05:52:23;13.20;;;7.60;;
60919;SDS011;59039;52.108;19.942;2023-10-31T05:54:48;14.50;;;6.90;;
60919;SDS011;59039;52.108;19.942;2023-10-31T05:57:13;16.00;;;7.10;;
60919;SDS011;59039;52.108;19.942;2023-10-31T05:59:38;12.90;;;6.90;;
60919;SDS011;59039;52.108;19.942;2023-10-31T06:02:03;11.30;;;6.70;;
60919;SDS011;59039;52.108;19.942;2023-10-31T06:04:29;13.90;;;7.10;;
60919;SDS011;59039;52.108;19.942;2023-10-31T06:06:54;12.60;;;6.50;;
60919;SDS011;59039;52.108;19.942;2023-10-31T06:09:19;13.90;;;6.00;;
60919;SDS011;59039;52.108;19.942;2023-10-31T06:11:44;14.70;;;6.60;;
60919;SDS011;59039;52.108;19.942;2023-10-31T06:14:10;14.10;;;6.10;;
60919;SDS011;59039;52.108;19.942;2023-10-31T06:16:45;16.60;;;7.20;;
60919;SDS011;59039;52.108;19.942;2023-10-31T06:19:10;12.30;;;6.00;;
60919;SDS011;59039;52.108;19.942;2023-10-31T06:21:36;13.70;;;6.60;;
60919;SDS011;59039;52.108;19.942;2023-10-31T06:24:02;15.00;;;6.20;;
60919;SDS011;59039;52.108;19.942;2023-10-31T06:26:28;15.50;;;6.90;;
60919;SDS011;59039;52.108;19.942;2023-10-31T06:28:53;10.60;;;6.40;;
60919;SDS011;59039;52.108;19.942;2023-10-31T06:31:18;12.20;;;7.20;;
60919;SDS011;59039;52.108;19.942;2023-10-31T06:33:43;12.80;;;6.20;;
60919;SDS011;59039;52.108;19.942;2023-10-31T06:36:09;11.50;;;6.50;;
60919;SDS011;59039;52.108;19.942;2023-10-31T06:38:34;13.30;;;6.60;;
60919;SDS011;59039;52.108;19.942;2023-10-31T06:40:59;11.70;;;6.20;;
60919;SDS011;59039;52.108;19.942;2023-10-31T06:43:24;17.30;;;7.00;;
60919;SDS011;59039;52.108;19.942;2023-10-31T06:45:50;15.10;;;5.90;;
60919;SDS011;59039;52.108;19.942;2023-10-31T06:48:15;13.80;;;6.80;;
60919;SDS011;59039;52.108;19.942;2023-10-31T06:50:41;15.20;;;6.40;;
60919;SDS011;59039;52.108;19.942;2023-10-31T06:53:06;14.40;;;6.50;;
60919;SDS011;59039;52.108;19.942;2023-10-31T06:55:31;11.10;;;5.60;;
60919;SDS011;59039;52.108;19.942;2023-10-31T06:57:56;9.40;;;6.10;;
60919;SDS011;59039;52.108;19.942;2023-10-31T07:00:22;13.20;;;5.10;;
60919;SDS011;59039;52.108;19.942;2023-10-31T07:02:47;15.10;;;6.70;;
60919;SDS011;59039;52.108;19.942;2023-10-31T07:05:12;12.10;;;6.00;;
60919;SDS011;59039;52.108;19.942;2023-10-31T07:07:37;12.30;;;6.50;;
60919;SDS011;59039;52.108;19.942;2023-10-31T07:10:02;18.30;;;7.30;;
60919;SDS011;59039;52.108;19.942;2023-10-31T07:12:28;11.60;;;6.50;;
60919;SDS011;59039;52.108;19.942;2023-10-31T07:14:53;15.20;;;7.40;;
60919;SDS011;59039;52.108;19.942;2023-10-31T07:17:18;13.60;;;6.80;;
60919;SDS011;59039;52.108;19.942;2023-10-31T07:19:44;17.90;;;7.30;;
60919;SDS011;59039;52.108;19.942;2023-10-31T07:22:09;11.50;;;6.10;;
60919;SDS011;59039;52.108;19.942;2023-10-31T07:24:34;13.90;;;6.10;;
60919;SDS011;59039;52.108;19.942;2023-10-31T07:26:59;18.60;;;8.30;;
60919;SDS011;59039;52.108;19.942;2023-10-31T07:29:24;18.30;;;8.40;;
60919;SDS011;59039;52.108;19.942;2023-10-31T07:31:50;16.70;;;8.00;;
60919;SDS011;59039;52.108;19.942;2023-10-31T07:34:15;16.80;;;8.30;;
60919;SDS011;59039;52.108;19.942;2023-10-31T07:36:40;13.20;;;6.50;;
60919;SDS011;59039;52.108;19.942;2023-10-31T07:39:05;12.70;;;6.60;;
60919;SDS011;59039;52.108;19.942;2023-10-31T07:41:30;11.90;;;6.70;;
60919;SDS011;59039;52.108;19.942;2023-10-31T07:43:56;12.20;;;6.10;;
60919;SDS011;59039;52.108;19.942;2023-10-31T07:46:21;14.10;;;6.20;;
60919;SDS011;59039;52.108;19.942;2023-10-31T07:48:46;16.10;;;6.30;;
60919;SDS011;59039;52.108;19.942;2023-10-31T07:51:11;16.30;;;6.40;;
60919;SDS011;59039;52.108;19.942;2023-10-31T07:53:37;12.00;;;7.10;;
60919;SDS011;59039;52.108;19.942;2023-10-31T07:56:02;21.50;;;7.30;;
60919;SDS011;59039;52.108;19.942;2023-10-31T07:58:27;16.40;;;7.60;;
60919;SDS011;59039;52.108;19.942;2023-10-31T08:00:53;18.10;;;8.20;;
60919;SDS011;59039;52.108;19.942;2023-10-31T08:03:18;15.20;;;7.70;;
60919;SDS011;59039;52.108;19.942;2023-10-31T08:05:45;13.10;;;6.20;;
60919;SDS011;59039;52.108;19.942;2023-10-31T08:08:10;15.20;;;8.10;;
60919;SDS011;59039;52.108;19.942;2023-10-31T08:10:36;13.80;;;8.20;;
60919;SDS011;59039;52.108;19.942;2023-10-31T08:13:01;13.30;;;7.30;;
60919;SDS011;59039;52.108;19.942;2023-10-31T08:15:26;23.40;;;9.60;;
60919;SDS011;59039;52.108;19.942;2023-10-31T08:17:51;15.00;;;8.70;;
60919;SDS011;59039;52.108;19.942;2023-10-31T08:20:17;13.30;;;7.70;;
60919;SDS011;59039;52.108;19.942;2023-10-31T08:22:42;15.00;;;6.90;;
60919;SDS011;59039;52.108;19.942;2023-10-31T08:25:07;9.80;;;6.20;;
60919;SDS011;59039;52.108;19.942;2023-10-31T08:27:33;11.50;;;5.80;;
60919;SDS011;59039;52.108;19.942;2023-10-31T08:29:58;15.10;;;6.60;;
60919;SDS011;59039;52.108;19.942;2023-10-31T08:32:24;11.90;;;6.20;;
60919;SDS011;59039;52.108;19.942;2023-10-31T08:34:49;14.20;;;6.20;;
60919;SDS011;59039;52.108;19.942;2023-10-31T08:37:14;12.20;;;6.20;;
60919;SDS011;59039;52.108;19.942;2023-10-31T08:39:39;13.30;;;6.80;;
60919;SDS011;59039;52.108;19.942;2023-10-31T08:42:04;13.20;;;7.00;;
60919;SDS011;59039;52.108;19.942;2023-10-31T08:44:30;13.90;;;6.80;;
60919;SDS011;59039;52.108;19.942;2023-10-31T08:46:55;14.30;;;7.20;;
60919;SDS011;59039;52.108;19.942;2023-10-31T08:49:20;16.50;;;7.30;;
60919;SDS011;59039;52.108;19.942;2023-10-31T08:51:45;10.80;;;6.20;;
60919;SDS011;59039;52.108;19.942;2023-10-31T08:54:11;19.50;;;7.60;;
60919;SDS011;59039;52.108;19.942;2023-10-31T08:56:36;14.30;;;7.20;;
60919;SDS011;59039;52.108;19.942;2023-10-31T08:59:01;15.50;;;6.50;;
60919;SDS011;59039;52.108;19.942;2023-10-31T09:01:27;15.10;;;6.90;;
60919;SDS011;59039;52.108;19.942;2023-10-31T09:03:52;13.40;;;6.80;;
60919;SDS011;59039;52.108;19.942;2023-10-31T09:06:17;16.50;;;6.90;;
60919;SDS011;59039;52.108;19.942;2023-10-31T09:08:43;19.20;;;8.30;;
60919;SDS011;59039;52.108;19.942;2023-10-31T09:11:08;25.80;;;9.90;;
60919;SDS011;59039;52.108;19.942;2023-10-31T09:13:33;23.00;;;8.30;;
60919;SDS011;59039;52.108;19.942;2023-10-31T09:15:59;14.40;;;7.10;;
60919;SDS011;59039;52.108;19.942;2023-10-31T09:18:24;14.10;;;6.10;;
60919;SDS011;59039;52.108;19.942;2023-10-31T09:20:50;16.50;;;7.10;;
60919;SDS011;59039;52.108;19.942;2023-10-31T09:23:15;16.60;;;6.70;;
60919;SDS011;59039;52.108;19.942;2023-10-31T09:25:41;15.60;;;6.30;;
60919;SDS011;59039;52.108;19.942;2023-10-31T09:28:06;14.80;;;5.30;;
60919;SDS011;59039;52.108;19.942;2023-10-31T09:30:31;15.50;;;5.40;;
60919;SDS011;59039;52.108;19.942;2023-10-31T09:32:56;17.20;;;6.70;;
60919;SDS011;59039;52.108;19.942;2023-10-31T09:35:21;18.70;;;6.80;;
60919;SDS011;59039;52.108;19.942;2023-10-31T09:37:47;12.10;;;6.00;;
60919;SDS011;59039;52.108;19.942;2023-10-31T09:40:12;17.40;;;8.10;;
60919;SDS011;59039;52.108;19.942;2023-10-31T09:42:37;21.10;;;7.20;;
60919;SDS011;59039;52.108;19.942;2023-10-31T09:45:03;11.80;;;5.60;;
60919;SDS011;59039;52.108;19.942;2023-10-31T09:47:29;10.60;;;6.30;;
60919;SDS011;59039;52.108;19.942;2023-10-31T09:49:55;16.60;;;5.80;;
60919;SDS011;59039;52.108;19.942;2023-10-31T09:52:20;13.10;;;5.90;;
60919;SDS011;59039;52.108;19.942;2023-10-31T09:54:47;12.10;;;6.10;;
60919;SDS011;59039;52.108;19.942;2023-10-31T09:57:14;13.70;;;5.30;;
60919;SDS011;59039;52.108;19.942;2023-10-31T09:59:39;13.80;;;5.50;;
60919;SDS011;59039;52.108;19.942;2023-10-31T10:02:04;13.00;;;5.70;;
60919;SDS011;59039;52.108;19.942;2023-10-31T10:04:29;13.00;;;5.60;;
60919;SDS011;59039;52.108;19.942;2023-10-31T10:06:58;16.00;;;6.20;;
60919;SDS011;59039;52.108;19.942;2023-10-31T10:09:25;9.00;;;5.30;;
60919;SDS011;59039;52.108;19.942;2023-10-31T10:11:51;12.40;;;5.80;;
60919;SDS011;59039;52.108;19.942;2023-10-31T10:14:16;12.20;;;6.20;;
60919;SDS011;59039;52.108;19.942;2023-10-31T10:16:42;15.10;;;6.30;;
60919;SDS011;59039;52.108;19.942;2023-10-31T10:21:46;13.00;;;5.70;;
60919;SDS011;59039;52.108;19.942;2023-10-31T10:24:16;9.50;;;6.50;;
60919;SDS011;59039;52.108;19.942;2023-10-31T10:26:43;10.50;;;5.90;;
60919;SDS011;59039;52.108;19.942;2023-10-31T10:29:08;9.90;;;6.10;;
60919;SDS011;59039;52.108;19.942;2023-10-31T10:31:33;11.20;;;6.40;;
60919;SDS011;59039;52.108;19.942;2023-10-31T10:33:59;12.20;;;7.10;;
60919;SDS011;59039;52.108;19.942;2023-10-31T10:36:24;12.10;;;6.80;;
60919;SDS011;59039;52.108;19.942;2023-10-31T10:38:50;12.60;;;6.20;;
60919;SDS011;59039;52.108;19.942;2023-10-31T10:41:20;14.50;;;6.50;;
60919;SDS011;59039;52.108;19.942;2023-10-31T10:43:47;11.90;;;7.30;;
60919;SDS011;59039;52.108;19.942;2023-10-31T10:46:18;15.90;;;6.30;;
60919;SDS011;59039;52.108;19.942;2023-10-31T10:48:46;10.90;;;6.20;;
60919;SDS011;59039;52.108;19.942;2023-10-31T10:53:50;16.90;;;8.40;;
60919;SDS011;59039;52.108;19.942;2023-10-31T10:56:27;15.70;;;7.60;;
60919;SDS011;59039;52.108;19.942;2023-10-31T10:59:10;13.80;;;7.70;;
60919;SDS011;59039;52.108;19.942;2023-10-31T11:01:39;11.80;;;7.80;;
60919;SDS011;59039;52.108;19.942;2023-10-31T11:04:07;13.80;;;7.90;;
60919;SDS011;59039;52.108;19.942;2023-10-31T11:06:33;14.10;;;7.00;;
60919;SDS011;59039;52.108;19.942;2023-10-31T11:08:59;12.20;;;6.90;;
60919;SDS011;59039;52.108;19.942;2023-10-31T11:11:25;13.90;;;7.30;;
60919;SDS011;59039;52.108;19.942;2023-10-31T11:13:50;13.60;;;6.00;;
60919;SDS011;59039;52.108;19.942;2023-10-31T11:16:26;12.50;;;6.50;;
60919;SDS011;59039;52.108;19.942;2023-10-31T11:21:24;11.20;;;6.60;;
60919;SDS011;59039;52.108;19.942;2023-10-31T11:23:59;13.70;;;7.00;;
60919;SDS011;59039;52.108;19.942;2023-10-31T11:26:26;15.40;;;7.10;;
60919;SDS011;59039;52.108;19.942;2023-10-31T11:28:51;14.90;;;8.00;;
60919;SDS011;59039;52.108;19.942;2023-10-31T11:31:16;14.20;;;6.80;;
60919;SDS011;59039;52.108;19.942;2023-10-31T11:33:42;11.80;;;6.90;;
60919;SDS011;59039;52.108;19.942;2023-10-31T11:36:07;15.40;;;7.60;;
60919;SDS011;59039;52.108;19.942;2023-10-31T11:38:36;18.00;;;8.20;;
60919;SDS011;59039;52.108;19.942;2023-10-31T11:41:03;35.40;;;16.70;;
60919;SDS011;59039;52.108;19.942;2023-10-31T11:46:04;34.00;;;14.10;;
60919;SDS011;59039;52.108;19.942;2023-10-31T11:48:48;18.70;;;10.40;;
60919;SDS011;59039;52.108;19.942;2023-10-31T11:51:17;10.20;;;7.00;;
60919;SDS011;59039;52.108;19.942;2023-10-31T11:53:43;19.20;;;6.90;;
60919;SDS011;59039;52.108;19.942;2023-10-31T11:56:09;10.00;;;6.40;;
60919;SDS011;59039;52.108;19.942;2023-10-31T11:58:35;29.40;;;15.50;;
60919;SDS011;59039;52.108;19.942;2023-10-31T12:01:01;20.20;;;11.40;;
60919;SDS011;59039;52.108;19.942;2023-10-31T12:03:35;11.60;;;7.40;;
60919;SDS011;59039;52.108;19.942;2023-10-31T12:06:07;13.10;;;6.80;;
60919;SDS011;59039;52.108;19.942;2023-10-31T12:08:37;8.20;;;6.20;;
60919;SDS011;59039;52.108;19.942;2023-10-31T12:13:37;10.20;;;6.50;;
60919;SDS011;59039;52.108;19.942;2023-10-31T12:16:05;9.50;;;6.10;;
60919;SDS011;59039;52.108;19.942;2023-10-31T12:18:31;16.50;;;9.50;;
60919;SDS011;59039;52.108;19.942;2023-10-31T12:20:56;15.60;;;7.20;;
60919;SDS011;59039;52.108;19.942;2023-10-31T12:23:21;13.20;;;8.00;;
60919;SDS011;59039;52.108;19.942;2023-10-31T12:25:50;15.40;;;8.20;;
60919;SDS011;59039;52.108;19.942;2023-10-31T12:28:19;12.10;;;7.40;;
60919;SDS011;59039;52.108;19.942;2023-10-31T12:30:46;10.80;;;6.80;;
60919;SDS011;59039;52.108;19.942;2023-10-31T12:33:12;10.50;;;6.50;;
60919;SDS011;59039;52.108;19.942;2023-10-31T12:35:38;9.50;;;5.30;;
60919;SDS011;59039;52.108;19.942;2023-10-31T12:38:04;9.10;;;5.30;;
60919;SDS011;59039;52.108;19.942;2023-10-31T12:40:30;9.60;;;5.30;;
60919;SDS011;59039;52.108;19.942;2023-10-31T12:42:56;9.10;;;5.30;;
60919;SDS011;59039;52.108;19.942;2023-10-31T12:45:22;14.40;;;5.90;;
60919;SDS011;59039;52.108;19.942;2023-10-31T12:48:00;8.40;;;5.50;;
60919;SDS011;59039;52.108;19.942;2023-10-31T12:50:26;8.40;;;5.60;;
60919;SDS011;59039;52.108;19.942;2023-10-31T12:52:51;12.50;;;5.80;;
60919;SDS011;59039;52.108;19.942;2023-10-31T12:55:18;9.90;;;6.00;;
60919;SDS011;59039;52.108;19.942;2023-10-31T12:57:45;9.80;;;6.30;;
60919;SDS011;59039;52.108;19.942;2023-10-31T13:00:11;12.00;;;6.60;;
60919;SDS011;59039;52.108;19.942;2023-10-31T13:02:41;13.40;;;6.60;;
60919;SDS011;59039;52.108;19.942;2023-10-31T13:05:13;8.50;;;5.40;;
60919;SDS011;59039;52.108;19.942;2023-10-31T13:07:40;9.40;;;5.60;;
60919;SDS011;59039;52.108;19.942;2023-10-31T13:10:12;9.10;;;5.30;;
60919;SDS011;59039;52.108;19.942;2023-10-31T13:12:37;13.50;;;5.70;;
60919;SDS011;59039;52.108;19.942;2023-10-31T13:15:02;9.50;;;6.40;;
60919;SDS011;59039;52.108;19.942;2023-10-31T13:17:28;8.40;;;5.50;;
60919;SDS011;59039;52.108;19.942;2023-10-31T13:19:53;11.00;;;6.10;;
60919;SDS011;59039;52.108;19.942;2023-10-31T13:22:18;10.30;;;5.80;;
60919;SDS011;59039;52.108;19.942;2023-10-31T13:24:44;11.30;;;6.20;;
60919;SDS011;59039;52.108;19.942;2023-10-31T13:27:09;10.60;;;6.40;;
60919;SDS011;59039;52.108;19.942;2023-10-31T13:29:34;13.30;;;6.70;;
60919;SDS011;59039;52.108;19.942;2023-10-31T13:31:59;13.50;;;7.00;;
60919;SDS011;59039;52.108;19.942;2023-10-31T13:34:24;15.50;;;7.90;;
60919;SDS011;59039;52.108;19.942;2023-10-31T13:36:50;12.10;;;6.90;;
60919;SDS011;59039;52.108;19.942;2023-10-31T13:39:15;13.40;;;6.60;;
60919;SDS011;59039;52.108;19.942;2023-10-31T13:41:40;17.00;;;7.10;;
60919;SDS011;59039;52.108;19.942;2023-10-31T13:44:05;12.20;;;6.60;;
60919;SDS011;59039;52.108;19.942;2023-10-31T13:46:31;13.20;;;5.30;;
60919;SDS011;59039;52.108;19.942;2023-10-31T13:48:56;11.20;;;5.20;;
60919;SDS011;59039;52.108;19.942;2023-10-31T13:51:21;11.80;;;5.20;;
60919;SDS011;59039;52.108;19.942;2023-10-31T13:53:46;13.60;;;6.10;;
60919;SDS011;59039;52.108;19.942;2023-10-31T13:56:11;10.40;;;5.30;;
60919;SDS011;59039;52.108;19.942;2023-10-31T13:58:37;9.70;;;5.00;;
60919;SDS011;59039;52.108;19.942;2023-10-31T14:01:02;9.70;;;5.20;;
60919;SDS011;59039;52.108;19.942;2023-10-31T14:03:27;9.30;;;5.50;;
60919;SDS011;59039;52.108;19.942;2023-10-31T14:05:52;9.90;;;5.40;;
60919;SDS011;59039;52.108;19.942;2023-10-31T14:08:18;11.20;;;5.60;;
60919;SDS011;59039;52.108;19.942;2023-10-31T14:10:43;11.90;;;5.90;;
60919;SDS011;59039;52.108;19.942;2023-10-31T14:13:08;10.00;;;5.00;;
60919;SDS011;59039;52.108;19.942;2023-10-31T14:15:33;12.10;;;6.70;;
60919;SDS011;59039;52.108;19.942;2023-10-31T14:17:59;14.70;;;7.60;;
60919;SDS011;59039;52.108;19.942;2023-10-31T14:20:24;14.20;;;6.70;;
60919;SDS011;59039;52.108;19.942;2023-10-31T14:22:49;12.40;;;5.80;;